Etusivu
METAR-TAF:

METAR-TAF

Lentoasemat :

Airlake Airport

Minneapolis / Lakeville, Minnesota, Yhdysvallat

Leveyspiiri: 44-37-40N, Pituuspiiri: 093-13-41W, korkeus merenpinnasta: 293 m

Tämänhetkinen sää

Tämä raportti tehtiin 17 minuuttia sitten, kello 09.35 UTC
Tuuli 8 kn etelästä
Lämpötila -6°C
Kosteus 68%
Ilmanpaine 1013 hPa
Näkyvyys: 16.1 km
selkeää

METAR: KLVN 130935Z AUTO 18008KT 10SM CLR M06/M11 A2992 RMK AO2

Aika: 03:52 (09:52 UTC)


TAF: puuttuu

Säähavainnot ja -ennusteet yli 4000 lentoasemalta (METAR- ja TAF-raportit).

Käytössä olevat sääasemat on merkitty karttaan keltaisilla ja punaisilla pisteillä.

Aseta hiiri pisteen päälle nähdäksesi sääaseman nimen.

Klikkaa sitten nähdäksesi säähavainnot ja -ennusteet.

Kartan vaihtaminen: klikkaa mustalla rastilla varustettuja vihreitä pisteitä, niin voit zoomata sisään; viivalla varustettua vihreää pistettä, niin voit zoomata ulos tai vihreitä nuolia, niin pääset viereisille kartoille.


METAR-TAF: